createdAt,value
2022-08-08T00:00:48.945Z,0
2022-08-08T00:02:05.271Z,0
2022-08-08T00:03:21.540Z,0
2022-08-08T00:04:37.837Z,0
2022-08-08T00:05:54.124Z,0
2022-08-08T00:07:10.412Z,0
2022-08-08T00:08:26.712Z,0
2022-08-08T00:09:43.017Z,0
2022-08-08T00:10:59.295Z,0
2022-08-08T00:12:15.604Z,0
2022-08-08T00:13:31.887Z,0
2022-08-08T00:14:48.188Z,0
2022-08-08T00:16:04.496Z,0
2022-08-08T00:17:19.779Z,0
2022-08-08T00:18:36.102Z,0
2022-08-08T00:19:52.387Z,0
2022-08-08T00:21:08.682Z,0
2022-08-08T00:22:24.958Z,0
2022-08-08T00:23:41.267Z,0
2022-08-08T00:26:13.856Z,0
2022-08-08T00:27:30.139Z,0
2022-08-08T00:28:46.441Z,0
2022-08-08T00:30:02.731Z,0
2022-08-08T00:31:19.024Z,0
2022-08-08T00:32:35.324Z,0
2022-08-08T00:33:50.623Z,0
2022-08-08T00:35:06.926Z,0
2022-08-08T00:36:23.222Z,0
2022-08-08T00:37:39.518Z,0
2022-08-08T00:38:55.799Z,0
2022-08-08T00:40:12.090Z,0
2022-08-08T00:41:27.407Z,0
2022-08-08T00:42:43.696Z,0
2022-08-08T00:44:00.001Z,0
2022-08-08T00:45:16.312Z,0
2022-08-08T00:46:32.578Z,0
2022-08-08T00:47:48.889Z,0
2022-08-08T00:49:05.173Z,0
2022-08-08T00:50:21.463Z,0
2022-08-08T00:51:37.757Z,0
2022-08-08T00:52:54.051Z,0
2022-08-08T00:54:10.347Z,0
2022-08-08T00:55:26.637Z,0
2022-08-08T00:56:42.949Z,0
2022-08-08T00:57:58.249Z,0
2022-08-08T00:59:14.540Z,0
2022-08-08T01:00:30.845Z,0
2022-08-08T01:01:47.132Z,0
2022-08-08T01:03:03.429Z,0
2022-08-08T01:05:36.006Z,0
2022-08-08T01:06:52.316Z,0
2022-08-08T01:08:08.602Z,0
2022-08-08T01:09:24.887Z,0
2022-08-08T01:10:41.205Z,0
2022-08-08T01:11:57.494Z,0
2022-08-08T01:13:13.783Z,0
2022-08-08T01:14:29.090Z,0
2022-08-08T01:15:45.393Z,0
2022-08-08T01:17:01.672Z,0
2022-08-08T01:18:17.962Z,0
2022-08-08T01:19:34.269Z,0
2022-08-08T01:20:50.567Z,0
2022-08-08T01:22:06.841Z,0
2022-08-08T01:23:23.136Z,0
2022-08-08T01:24:39.439Z,0
2022-08-08T01:25:55.742Z,0
2022-08-08T01:27:12.019Z,0
2022-08-08T01:28:28.342Z,0
2022-08-08T01:29:44.605Z,0
2022-08-08T01:30:59.918Z,0
2022-08-08T01:32:16.223Z,0
2022-08-08T01:33:32.505Z,0
2022-08-08T01:34:48.817Z,0
2022-08-08T01:36:05.102Z,0
2022-08-08T01:37:21.419Z,0
2022-08-08T01:38:37.679Z,0
2022-08-08T01:39:53.972Z,0
2022-08-08T01:41:10.282Z,0
2022-08-08T01:42:26.574Z,0
2022-08-08T01:43:42.867Z,0
2022-08-08T01:44:59.162Z,0
2022-08-08T01:46:15.445Z,0
2022-08-08T01:47:30.765Z,0
2022-08-08T01:48:47.059Z,0
2022-08-08T01:50:03.356Z,0
2022-08-08T01:52:35.941Z,0
2022-08-08T01:53:52.231Z,0
2022-08-08T01:55:08.536Z,0
2022-08-08T01:56:24.812Z,0
2022-08-08T01:57:41.119Z,0
2022-08-08T01:58:57.402Z,0
2022-08-08T02:00:13.717Z,0
2022-08-08T02:01:29.993Z,0
2022-08-08T02:02:46.290Z,0
2022-08-08T02:04:01.608Z,0
2022-08-08T02:05:17.904Z,0
2022-08-08T02:06:34.198Z,0
2022-08-08T02:07:50.485Z,0
2022-08-08T02:09:06.782Z,0
2022-08-08T02:10:23.064Z,0
2022-08-08T02:11:39.366Z,0
2022-08-08T02:12:55.651Z,0
2022-08-08T02:14:11.965Z,0
2022-08-08T02:15:28.244Z,0
2022-08-08T02:16:44.558Z,0
2022-08-08T02:18:00.824Z,0
2022-08-08T02:19:17.133Z,0
2022-08-08T02:20:32.440Z,0
2022-08-08T02:21:48.737Z,0
2022-08-08T02:23:05.041Z,0
2022-08-08T02:24:21.328Z,0
2022-08-08T02:25:37.618Z,0
2022-08-08T02:26:53.909Z,0
2022-08-08T02:28:10.211Z,0
2022-08-08T02:29:26.506Z,0
2022-08-08T02:30:42.808Z,0
2022-08-08T02:31:59.077Z,0
2022-08-08T02:33:15.368Z,0
2022-08-08T02:34:31.670Z,0
2022-08-08T02:35:47.962Z,0
2022-08-08T02:37:03.304Z,0
2022-08-08T02:38:19.566Z,0
2022-08-08T02:39:35.889Z,0
2022-08-08T02:40:52.171Z,0
2022-08-08T02:42:08.459Z,0
2022-08-08T02:43:24.740Z,0
2022-08-08T02:44:41.037Z,0
2022-08-08T02:45:57.325Z,0
2022-08-08T02:47:13.000Z,0
2022-08-08T02:48:29.933Z,0
2022-08-08T02:49:46.225Z,0
2022-08-08T02:51:02.510Z,0
2022-08-08T02:52:18.809Z,0
2022-08-08T02:53:34.109Z,0
2022-08-08T02:54:50.412Z,0
2022-08-08T02:56:06.694Z,0
2022-08-08T02:57:22.994Z,0
2022-08-08T02:58:39.286Z,0
2022-08-08T02:59:55.591Z,0
2022-08-08T03:01:11.880Z,0
2022-08-08T03:02:28.184Z,0
2022-08-08T03:03:44.479Z,0
2022-08-08T03:05:00.753Z,0
2022-08-08T03:06:17.045Z,0
2022-08-08T03:07:33.293Z,1
2022-08-08T03:08:49.603Z,0
2022-08-08T03:10:04.850Z,1
2022-08-08T03:11:21.103Z,1
2022-08-08T03:12:37.382Z,0
2022-08-08T03:13:53.701Z,0
2022-08-08T03:15:09.934Z,2
2022-08-08T03:16:26.164Z,1
2022-08-08T03:17:42.478Z,0
2022-08-08T03:18:58.721Z,2
2022-08-08T03:20:14.979Z,1
2022-08-08T03:21:31.195Z,2
2022-08-08T03:22:47.442Z,3
2022-08-08T03:24:03.703Z,4
2022-08-08T03:25:19.943Z,3
2022-08-08T03:26:35.193Z,4
2022-08-08T03:27:51.423Z,4
2022-08-08T03:29:07.679Z,8
2022-08-08T03:30:23.894Z,9
2022-08-08T03:31:40.146Z,13
2022-08-08T03:32:56.392Z,16
2022-08-08T03:34:12.624Z,21
2022-08-08T03:35:28.866Z,19
2022-08-08T03:36:45.093Z,23
2022-08-08T03:38:01.332Z,29
2022-08-08T03:39:17.568Z,37
2022-08-08T03:40:33.831Z,39
2022-08-08T03:41:50.067Z,49
2022-08-08T03:43:05.314Z,52
2022-08-08T03:44:21.553Z,60
2022-08-08T03:45:37.785Z,68
2022-08-08T03:46:54.053Z,73
2022-08-08T03:48:10.292Z,83
2022-08-08T03:49:26.525Z,95
2022-08-08T03:50:42.756Z,105
2022-08-08T03:51:59.017Z,118
2022-08-08T03:53:15.241Z,127
2022-08-08T03:54:31.469Z,142
2022-08-08T03:55:47.704Z,152
2022-08-08T03:57:03.955Z,167
2022-08-08T03:58:20.206Z,181
2022-08-08T03:59:35.450Z,194
2022-08-08T04:00:51.688Z,208
2022-08-08T04:02:07.928Z,224
2022-08-08T04:03:24.188Z,237
2022-08-08T04:04:40.402Z,253
2022-08-08T04:05:56.645Z,266
2022-08-08T04:07:12.898Z,280
2022-08-08T04:08:29.158Z,297
2022-08-08T04:09:45.365Z,312
2022-08-08T04:11:01.629Z,328
2022-08-08T04:12:17.845Z,345
2022-08-08T04:13:34.090Z,356
2022-08-08T04:14:50.340Z,373
2022-08-08T04:16:05.593Z,390
2022-08-08T04:17:21.829Z,407
2022-08-08T04:18:38.087Z,422
2022-08-08T04:19:54.301Z,434
2022-08-08T04:21:10.574Z,451
2022-08-08T04:22:26.788Z,471
2022-08-08T04:23:43.016Z,482
2022-08-08T04:24:59.270Z,495
2022-08-08T04:26:15.508Z,509
2022-08-08T04:27:31.745Z,531
2022-08-08T04:28:48.009Z,551
2022-08-08T04:30:04.237Z,564
2022-08-08T04:31:20.471Z,577
2022-08-08T04:32:35.713Z,597
2022-08-08T04:33:51.960Z,619
2022-08-08T04:35:08.195Z,642
2022-08-08T04:36:24.442Z,657
2022-08-08T04:37:40.681Z,674
2022-08-08T04:38:56.920Z,690
2022-08-08T04:40:13.170Z,711
2022-08-08T04:41:29.409Z,731
2022-08-08T04:42:45.637Z,747
2022-08-08T04:44:01.879Z,764
2022-08-08T04:45:18.140Z,778
2022-08-08T04:46:34.357Z,792
2022-08-08T04:47:50.602Z,801
2022-08-08T04:49:05.867Z,810
2022-08-08T04:50:22.098Z,825
2022-08-08T04:51:38.331Z,848
2022-08-08T04:52:54.577Z,869
2022-08-08T04:54:10.825Z,887
2022-08-08T04:55:27.060Z,915
2022-08-08T04:56:42.341Z,927
2022-08-08T04:57:58.565Z,940
2022-08-08T04:59:14.800Z,949
2022-08-08T05:00:31.059Z,957
2022-08-08T05:01:47.302Z,981
2022-08-08T05:03:03.542Z,1024
2022-08-08T05:04:19.753Z,1029
2022-08-08T05:05:36.006Z,1024
2022-08-08T05:06:52.254Z,1038
2022-08-08T05:08:08.493Z,1046
2022-08-08T05:09:24.723Z,1058
2022-08-08T05:10:40.956Z,1076
2022-08-08T05:11:57.202Z,1122
2022-08-08T05:13:12.468Z,1153
2022-08-08T05:14:28.714Z,1165
2022-08-08T05:15:44.937Z,1185
2022-08-08T05:17:01.184Z,1211
2022-08-08T05:18:17.420Z,1215
2022-08-08T05:19:33.676Z,1229
2022-08-08T05:20:49.903Z,1226
2022-08-08T05:22:06.141Z,1239
2022-08-08T05:23:22.393Z,1264
2022-08-08T05:24:38.616Z,1298
2022-08-08T05:25:54.861Z,1323
2022-08-08T05:27:11.094Z,1358
2022-08-08T05:28:27.353Z,1364
2022-08-08T05:29:42.606Z,1418
2022-08-08T05:30:58.838Z,1529
2022-08-08T05:32:15.066Z,1543
2022-08-08T05:33:31.311Z,1491
2022-08-08T05:34:47.565Z,1487
2022-08-08T05:36:03.804Z,1492
2022-08-08T05:37:20.027Z,1499
2022-08-08T05:38:36.284Z,1502
2022-08-08T05:39:52.521Z,1511
2022-08-08T05:41:08.759Z,1520
2022-08-08T05:42:25.003Z,1540
2022-08-08T05:43:41.234Z,1565
2022-08-08T05:44:57.476Z,1574
2022-08-08T05:46:12.727Z,1605
2022-08-08T05:47:28.960Z,1613
2022-08-08T05:48:45.208Z,1625
2022-08-08T05:50:01.445Z,1634
2022-08-08T05:51:17.703Z,1655
2022-08-08T05:52:33.935Z,1670
2022-08-08T05:53:50.181Z,1689
2022-08-08T05:55:06.411Z,1702
2022-08-08T05:56:22.649Z,1727
2022-08-08T05:57:38.918Z,1752
2022-08-08T05:58:55.147Z,1784
2022-08-08T06:00:11.365Z,1799
2022-08-08T06:01:27.625Z,1814
2022-08-08T06:02:42.873Z,1830
2022-08-08T06:03:59.134Z,1832
2022-08-08T06:05:15.352Z,1836
2022-08-08T06:06:31.587Z,1835
2022-08-08T06:07:47.824Z,1879
2022-08-08T06:09:04.071Z,1917
2022-08-08T06:10:20.301Z,1935
2022-08-08T06:11:36.563Z,1937
2022-08-08T06:12:52.778Z,1941
2022-08-08T06:14:09.022Z,2003
2022-08-08T06:15:25.264Z,2103
2022-08-08T06:16:41.500Z,2045
2022-08-08T06:17:57.751Z,2017
2022-08-08T06:19:13.005Z,2017
2022-08-08T06:20:29.235Z,2074
2022-08-08T06:21:45.508Z,2066
2022-08-08T06:23:01.719Z,2051
2022-08-08T06:24:17.959Z,2067
2022-08-08T06:25:34.195Z,2088
2022-08-08T06:26:50.434Z,2081
2022-08-08T06:28:06.707Z,2168
2022-08-08T06:29:22.916Z,2216
2022-08-08T06:30:39.152Z,2210
2022-08-08T06:31:55.411Z,2212
2022-08-08T06:33:11.638Z,2281
2022-08-08T06:34:27.892Z,2289
2022-08-08T06:35:43.128Z,2268
2022-08-08T06:36:59.379Z,2279
2022-08-08T06:38:15.616Z,2320
2022-08-08T06:39:31.849Z,2334
2022-08-08T06:40:48.095Z,2360
2022-08-08T06:42:04.327Z,2368
2022-08-08T06:43:20.582Z,2372
2022-08-08T06:44:36.818Z,2414
2022-08-08T06:45:53.051Z,2420
2022-08-08T06:47:09.299Z,2439
2022-08-08T06:48:25.541Z,2462
2022-08-08T06:49:41.772Z,2467
2022-08-08T06:50:58.036Z,2451
2022-08-08T06:52:13.270Z,2519
2022-08-08T06:53:29.508Z,2543
2022-08-08T06:54:45.746Z,2534
2022-08-08T06:56:01.989Z,2562
2022-08-08T06:57:18.257Z,2569
2022-08-08T06:58:34.469Z,2560
2022-08-08T06:59:50.723Z,2589
2022-08-08T07:01:06.953Z,2629
2022-08-08T07:02:23.193Z,2641
2022-08-08T07:03:39.424Z,2638
2022-08-08T07:04:55.686Z,2645
2022-08-08T07:06:11.908Z,2688
2022-08-08T07:07:28.155Z,2681
2022-08-08T07:08:43.412Z,2695
2022-08-08T07:09:59.652Z,2716
2022-08-08T07:11:15.889Z,2687
2022-08-08T07:12:32.120Z,2727
2022-08-08T07:13:48.389Z,2756
2022-08-08T07:15:04.634Z,2753
2022-08-08T07:16:20.857Z,2781
2022-08-08T07:17:37.118Z,2821
2022-08-08T07:18:53.000Z,2805
2022-08-08T07:20:09.572Z,2838
2022-08-08T07:21:25.831Z,2872
2022-08-08T07:22:42.061Z,2841
2022-08-08T07:23:58.295Z,2891
2022-08-08T07:25:13.571Z,2915
2022-08-08T07:26:29.799Z,2937
2022-08-08T07:27:46.040Z,2970
2022-08-08T07:29:02.301Z,2950
2022-08-08T07:30:18.540Z,2984
2022-08-08T07:31:34.745Z,3051
2022-08-08T07:32:50.999Z,2996
2022-08-08T07:34:07.230Z,3020
2022-08-08T07:35:23.462Z,3105
2022-08-08T07:36:39.733Z,3104
2022-08-08T07:37:55.951Z,3088
2022-08-08T07:39:12.214Z,3119
2022-08-08T07:40:28.437Z,3135
2022-08-08T07:41:43.681Z,3108
2022-08-08T07:42:59.945Z,3175
2022-08-08T07:44:16.168Z,3177
2022-08-08T07:45:32.436Z,3188
2022-08-08T07:46:48.658Z,3210
2022-08-08T07:48:04.887Z,3212
2022-08-08T07:49:21.150Z,3240
2022-08-08T07:50:37.378Z,3239
2022-08-08T07:51:53.618Z,3282
2022-08-08T07:53:09.864Z,3285
2022-08-08T07:54:26.102Z,3296
2022-08-08T07:55:42.324Z,3320
2022-08-08T07:56:58.564Z,3360
2022-08-08T07:58:13.835Z,3353
2022-08-08T07:59:30.059Z,3375
2022-08-08T08:00:46.308Z,3399
2022-08-08T08:02:02.542Z,3368
2022-08-08T08:03:18.789Z,3381
2022-08-08T08:04:35.030Z,3424
2022-08-08T08:05:51.259Z,3442
2022-08-08T08:07:07.498Z,3446
2022-08-08T08:08:23.747Z,3462
2022-08-08T08:09:39.990Z,3506
2022-08-08T08:10:56.249Z,3454
2022-08-08T08:12:12.470Z,3497
2022-08-08T08:13:28.720Z,3527
2022-08-08T08:14:43.961Z,3502
2022-08-08T08:16:00.204Z,3534
2022-08-08T08:17:16.443Z,3550
2022-08-08T08:18:32.688Z,3545
2022-08-08T08:19:48.932Z,3608
2022-08-08T08:21:05.183Z,3564
2022-08-08T08:22:21.426Z,3594
2022-08-08T08:23:37.638Z,3595
2022-08-08T08:24:53.876Z,3602
2022-08-08T08:26:10.133Z,3690
2022-08-08T08:27:26.372Z,3647
2022-08-08T08:28:42.612Z,3646
2022-08-08T08:29:58.840Z,3705
2022-08-08T08:31:14.110Z,3674
2022-08-08T08:32:30.343Z,3687
2022-08-08T08:33:46.580Z,3684
2022-08-08T08:35:02.822Z,3717
2022-08-08T08:36:19.069Z,3795
2022-08-08T08:37:35.292Z,3729
2022-08-08T08:38:51.545Z,3755
2022-08-08T08:40:07.772Z,3755
2022-08-08T08:41:24.030Z,3788
2022-08-08T08:42:40.271Z,3798
2022-08-08T08:43:56.496Z,3817
2022-08-08T08:45:12.745Z,3855
2022-08-08T08:46:28.979Z,3843
2022-08-08T08:47:44.233Z,3819
2022-08-08T08:49:00.470Z,3822
2022-08-08T08:50:16.723Z,3897
2022-08-08T08:51:32.958Z,3865
2022-08-08T08:52:49.206Z,3870
2022-08-08T08:54:05.443Z,3905
2022-08-08T08:55:21.675Z,3957
2022-08-08T08:56:37.911Z,3910
2022-08-08T08:57:54.161Z,3921
2022-08-08T08:59:10.390Z,3906
2022-08-08T09:00:26.629Z,3924
2022-08-08T09:01:42.873Z,3986
2022-08-08T09:02:59.121Z,3979
2022-08-08T09:04:14.379Z,3985
2022-08-08T09:05:30.606Z,3933
2022-08-08T09:06:46.847Z,4023
2022-08-08T09:08:03.102Z,4037
2022-08-08T09:09:19.328Z,3960
2022-08-08T09:10:35.574Z,4025
2022-08-08T09:11:50.833Z,4042
2022-08-08T09:13:07.076Z,4055
2022-08-08T09:14:23.305Z,4032
2022-08-08T09:15:39.557Z,4100
2022-08-08T09:16:55.790Z,4071
2022-08-08T09:18:12.036Z,4073
2022-08-08T09:19:28.284Z,4097
2022-08-08T09:22:00.754Z,4034
2022-08-08T09:23:16.997Z,4142
2022-08-08T09:24:33.240Z,4203
2022-08-08T09:25:49.474Z,4233
2022-08-08T09:27:05.706Z,4244
2022-08-08T09:28:20.962Z,4103
2022-08-08T09:29:37.209Z,4119
2022-08-08T09:30:53.459Z,4139
2022-08-08T09:32:09.702Z,4200
2022-08-08T09:33:25.942Z,4165
2022-08-08T09:34:42.184Z,4235
2022-08-08T09:35:58.410Z,4218
2022-08-08T09:37:14.661Z,4323
2022-08-08T09:38:30.901Z,4233
2022-08-08T09:39:47.126Z,4269
2022-08-08T09:41:03.384Z,4414
2022-08-08T09:42:19.622Z,5030
2022-08-08T09:43:35.861Z,3104
2022-08-08T09:44:51.112Z,5002
2022-08-08T09:46:07.354Z,3622
2022-08-08T09:47:23.588Z,4677
2022-08-08T09:48:39.839Z,3742
2022-08-08T09:49:56.075Z,3151
2022-08-08T09:51:12.311Z,3758
2022-08-08T09:52:28.544Z,3671
2022-08-08T09:53:44.791Z,4488
2022-08-08T09:55:01.035Z,4670
2022-08-08T09:56:17.282Z,4715
2022-08-08T09:57:33.517Z,4732
2022-08-08T09:58:49.750Z,4727
2022-08-08T10:00:05.983Z,3589
2022-08-08T10:01:21.250Z,3088
2022-08-08T10:02:37.000Z,4664
2022-08-08T10:03:53.727Z,4913
2022-08-08T10:05:09.975Z,5310
2022-08-08T10:06:26.211Z,3828
2022-08-08T10:07:42.441Z,5398
2022-08-08T10:08:58.689Z,5125
2022-08-08T10:10:14.937Z,4218
2022-08-08T10:11:31.176Z,4157
2022-08-08T10:12:47.409Z,4552
2022-08-08T10:14:03.656Z,3132
2022-08-08T10:15:19.881Z,4712
2022-08-08T10:16:36.137Z,5781
2022-08-08T10:17:51.400Z,4531
2022-08-08T10:19:07.629Z,5602
2022-08-08T10:20:23.857Z,6283
2022-08-08T10:21:40.109Z,5074
2022-08-08T10:22:56.365Z,2757
2022-08-08T10:24:12.580Z,5056
2022-08-08T10:25:28.827Z,4938
2022-08-08T10:26:45.085Z,4966
2022-08-08T10:28:01.315Z,4953
2022-08-08T10:29:17.553Z,4895
2022-08-08T10:30:33.804Z,4801
2022-08-08T10:31:50.035Z,4882
2022-08-08T10:33:06.282Z,5178
2022-08-08T10:34:21.518Z,5084
2022-08-08T10:35:37.768Z,4894
2022-08-08T10:36:53.997Z,4855
2022-08-08T10:38:10.245Z,4806
2022-08-08T10:39:26.491Z,4617
2022-08-08T10:40:42.727Z,4725
2022-08-08T10:41:58.964Z,4749
2022-08-08T10:43:15.212Z,4967
2022-08-08T10:44:31.440Z,4883
2022-08-08T10:45:47.683Z,4700
2022-08-08T10:47:03.936Z,4748
2022-08-08T10:48:20.179Z,4581
2022-08-08T10:49:36.403Z,4797
2022-08-08T10:50:52.650Z,4741
2022-08-08T10:52:08.882Z,4627
2022-08-08T10:53:24.136Z,4583
2022-08-08T10:54:40.392Z,4379
2022-08-08T10:55:56.631Z,4334
2022-08-08T10:57:12.859Z,4407
2022-08-08T10:58:29.108Z,4212
2022-08-08T10:59:45.352Z,4308
2022-08-08T11:01:01.582Z,4080
2022-08-08T11:02:17.000Z,4114
2022-08-08T11:03:34.056Z,4116
2022-08-08T11:04:50.306Z,3878
2022-08-08T11:06:06.554Z,3701
2022-08-08T11:07:22.787Z,3759
2022-08-08T11:08:39.033Z,3926
2022-08-08T11:09:54.282Z,3166
2022-08-08T11:11:10.527Z,3661
2022-08-08T11:12:26.765Z,3636
2022-08-08T11:13:42.996Z,3407
2022-08-08T11:14:59.233Z,3665
2022-08-08T11:16:15.474Z,3579
2022-08-08T11:17:31.726Z,3548
2022-08-08T11:18:47.953Z,3378
2022-08-08T11:20:04.212Z,2627
2022-08-08T11:21:20.447Z,3269
2022-08-08T11:22:36.687Z,3343
2022-08-08T11:23:52.931Z,3567
2022-08-08T11:25:09.166Z,3487
2022-08-08T11:26:24.426Z,3446
2022-08-08T11:27:40.657Z,3465
2022-08-08T11:28:56.897Z,3354
2022-08-08T11:30:13.148Z,3463
2022-08-08T11:31:29.379Z,3294
2022-08-08T11:32:45.620Z,3068
2022-08-08T11:34:01.859Z,2742
2022-08-08T11:35:18.074Z,3362
2022-08-08T11:36:34.321Z,3518
2022-08-08T11:37:50.574Z,3477
2022-08-08T11:39:06.826Z,3463
2022-08-08T11:40:23.052Z,3444
2022-08-08T11:41:39.297Z,3443
2022-08-08T11:42:54.557Z,3560
2022-08-08T11:44:10.804Z,3583
2022-08-08T11:45:27.017Z,3662
2022-08-08T11:46:43.265Z,3799
2022-08-08T11:47:59.514Z,3571
2022-08-08T11:49:15.763Z,3558
2022-08-08T11:50:31.977Z,3498
2022-08-08T11:51:48.235Z,3463
2022-08-08T11:53:04.479Z,3406
2022-08-08T11:54:20.704Z,3500
2022-08-08T11:55:36.963Z,3481
2022-08-08T11:56:53.186Z,3420
2022-08-08T11:58:09.442Z,3240
2022-08-08T11:59:24.702Z,3214
2022-08-08T12:00:40.000Z,3306
2022-08-08T12:01:57.181Z,3291
2022-08-08T12:03:13.413Z,3175
2022-08-08T12:04:29.645Z,3080
2022-08-08T12:05:45.898Z,3097
2022-08-08T12:07:02.125Z,3110
2022-08-08T12:08:18.372Z,3041
2022-08-08T12:09:34.602Z,3054
2022-08-08T12:10:50.853Z,2979
2022-08-08T12:12:07.096Z,2891
2022-08-08T12:13:23.342Z,2940
2022-08-08T12:14:39.570Z,2885
2022-08-08T12:15:54.823Z,2957
2022-08-08T12:17:11.046Z,3081
2022-08-08T12:18:27.314Z,3097
2022-08-08T12:19:43.539Z,3027
2022-08-08T12:20:59.780Z,2927
2022-08-08T12:22:16.038Z,2911
2022-08-08T12:23:32.259Z,2874
2022-08-08T12:24:48.488Z,2828
2022-08-08T12:26:04.748Z,2853
2022-08-08T12:27:20.998Z,2961
2022-08-08T12:28:37.208Z,2908
2022-08-08T12:29:53.466Z,2877
2022-08-08T12:31:09.698Z,2908
2022-08-08T12:32:24.957Z,2975
2022-08-08T12:33:41.205Z,2912
2022-08-08T12:34:57.434Z,2929
2022-08-08T12:36:13.685Z,2985
2022-08-08T12:38:46.163Z,3017
2022-08-08T12:40:02.403Z,2955
2022-08-08T12:41:18.650Z,2898
2022-08-08T12:42:34.876Z,2880
2022-08-08T12:43:51.134Z,2879
2022-08-08T12:45:07.368Z,2877
2022-08-08T12:46:23.610Z,2909
2022-08-08T12:47:39.849Z,2907
2022-08-08T12:48:55.105Z,2871
2022-08-08T12:50:11.347Z,2918
2022-08-08T12:51:27.570Z,2858
2022-08-08T12:52:43.817Z,2869
2022-08-08T12:54:00.066Z,2901
2022-08-08T12:55:16.301Z,2825
2022-08-08T12:56:32.548Z,2863
2022-08-08T12:57:48.787Z,2799
2022-08-08T12:59:05.000Z,2821
2022-08-08T13:00:21.263Z,2686
2022-08-08T13:01:37.499Z,2672
2022-08-08T13:02:53.748Z,2684
2022-08-08T13:04:09.983Z,2693
2022-08-08T13:05:25.226Z,2702
2022-08-08T13:06:41.479Z,2746
2022-08-08T13:07:57.721Z,2750
2022-08-08T13:09:13.964Z,2688
2022-08-08T13:10:30.205Z,2703
2022-08-08T13:11:46.446Z,2663
2022-08-08T13:13:02.679Z,2644
2022-08-08T13:14:18.907Z,2675
2022-08-08T13:15:35.162Z,2586
2022-08-08T13:16:51.387Z,2589
2022-08-08T13:18:07.633Z,2570
2022-08-08T13:19:23.877Z,2523
2022-08-08T13:20:40.110Z,2533
2022-08-08T13:21:55.377Z,2536
2022-08-08T13:23:11.594Z,2501
2022-08-08T13:25:44.089Z,2502
2022-08-08T13:26:59.361Z,2461
2022-08-08T13:28:15.585Z,2461
2022-08-08T13:29:31.824Z,2486
2022-08-08T13:30:48.062Z,2504
2022-08-08T13:32:04.319Z,2466
2022-08-08T13:33:20.548Z,2528
2022-08-08T13:34:36.796Z,2612
2022-08-08T13:35:53.041Z,2674
2022-08-08T13:37:09.269Z,2644
2022-08-08T13:38:25.504Z,2635
2022-08-08T13:39:41.744Z,2686
2022-08-08T13:40:58.000Z,2771
2022-08-08T13:42:14.237Z,2742
2022-08-08T13:43:29.490Z,2598
2022-08-08T13:44:45.727Z,2742
2022-08-08T13:46:01.959Z,2761
2022-08-08T13:47:18.217Z,2725
2022-08-08T13:48:34.438Z,2834
2022-08-08T13:49:50.680Z,2751
2022-08-08T13:51:06.930Z,2690
2022-08-08T13:52:23.170Z,2718
2022-08-08T13:53:39.389Z,2648
2022-08-08T13:54:55.638Z,2989
2022-08-08T13:56:11.891Z,2740
2022-08-08T13:57:28.119Z,2508
2022-08-08T13:58:44.357Z,2449
2022-08-08T13:59:59.632Z,2383
2022-08-08T14:01:15.861Z,2347
2022-08-08T14:02:32.103Z,2335
2022-08-08T14:03:48.335Z,1885
2022-08-08T14:05:04.568Z,2500
2022-08-08T14:06:20.823Z,2408
2022-08-08T14:07:37.064Z,2608
2022-08-08T14:08:53.312Z,2846
2022-08-08T14:10:09.537Z,2157
2022-08-08T14:11:25.792Z,2556
2022-08-08T14:12:42.032Z,2674
2022-08-08T14:13:58.251Z,2599
2022-08-08T14:15:14.497Z,2662
2022-08-08T14:16:29.745Z,2548
2022-08-08T14:17:45.996Z,2369
2022-08-08T14:19:02.244Z,2077
2022-08-08T14:20:18.489Z,2753
2022-08-08T14:21:34.713Z,2474
2022-08-08T14:22:50.949Z,2402
2022-08-08T14:24:07.198Z,2367
2022-08-08T14:25:23.438Z,2359
2022-08-08T14:26:39.686Z,2334
2022-08-08T14:27:55.913Z,2373
2022-08-08T14:29:12.162Z,1964
2022-08-08T14:30:28.401Z,2306
2022-08-08T14:31:44.622Z,2617
2022-08-08T14:32:59.900Z,2654
2022-08-08T14:34:16.134Z,2734
2022-08-08T14:35:32.373Z,2612
2022-08-08T14:36:48.602Z,3097
2022-08-08T14:38:04.860Z,2139
2022-08-08T14:39:21.089Z,2423
2022-08-08T14:40:37.333Z,2597
2022-08-08T14:41:53.574Z,2630
2022-08-08T14:43:09.823Z,2622
2022-08-08T14:44:26.044Z,2548
2022-08-08T14:45:42.291Z,2533
2022-08-08T14:46:58.532Z,2557
2022-08-08T14:48:14.778Z,2526
2022-08-08T14:49:30.038Z,2526
2022-08-08T14:50:46.270Z,2524
2022-08-08T14:52:02.511Z,2563
2022-08-08T14:53:18.757Z,2571
2022-08-08T14:54:34.981Z,2527
2022-08-08T14:55:51.230Z,2471
2022-08-08T14:57:07.466Z,2491
2022-08-08T14:58:23.707Z,2432
2022-08-08T14:59:39.946Z,2445
2022-08-08T15:00:56.196Z,2487
2022-08-08T15:02:12.423Z,2413
2022-08-08T15:03:28.667Z,2396
2022-08-08T15:04:44.919Z,2332
2022-08-08T15:06:01.155Z,2379
2022-08-08T15:07:16.416Z,2427
2022-08-08T15:08:32.643Z,2723
2022-08-08T15:09:48.895Z,2580
2022-08-08T15:11:05.124Z,1508
2022-08-08T15:12:21.366Z,2223
2022-08-08T15:13:37.610Z,2319
2022-08-08T15:14:53.837Z,2441
2022-08-08T15:16:10.097Z,2596
2022-08-08T15:17:26.333Z,1674
2022-08-08T15:18:42.568Z,2308
2022-08-08T15:19:58.795Z,1977
2022-08-08T15:21:15.061Z,2007
2022-08-08T15:22:31.277Z,2000
2022-08-08T15:23:46.555Z,1966
2022-08-08T15:25:02.786Z,1924
2022-08-08T15:26:19.020Z,1889
2022-08-08T15:27:35.265Z,1854
2022-08-08T15:28:51.504Z,1817
2022-08-08T15:30:07.735Z,1773
2022-08-08T15:31:23.974Z,1740
2022-08-08T15:32:40.233Z,1703
2022-08-08T15:33:56.456Z,1659
2022-08-08T15:35:12.699Z,1637
2022-08-08T15:36:28.932Z,1631
2022-08-08T15:37:45.183Z,1628
2022-08-08T15:39:01.417Z,1534
2022-08-08T15:40:16.685Z,1097
2022-08-08T15:41:32.924Z,1736
2022-08-08T15:42:49.179Z,2154
2022-08-08T15:44:05.393Z,1799
2022-08-08T15:45:21.638Z,1625
2022-08-08T15:46:37.878Z,1626
2022-08-08T15:47:54.110Z,1778
2022-08-08T15:49:10.363Z,1108
2022-08-08T15:50:26.601Z,1718
2022-08-08T15:51:42.837Z,1720
2022-08-08T15:52:59.078Z,1876
2022-08-08T15:54:15.313Z,1628
2022-08-08T15:55:31.548Z,2045
2022-08-08T15:56:46.805Z,1748
2022-08-08T15:58:03.059Z,1702
2022-08-08T15:59:19.290Z,1689
2022-08-08T16:00:35.541Z,1671
2022-08-08T16:01:51.774Z,1622
2022-08-08T16:03:08.014Z,1647
2022-08-08T16:04:24.252Z,1624
2022-08-08T16:05:40.487Z,1606
2022-08-08T16:06:56.739Z,1612
2022-08-08T16:08:12.970Z,1625
2022-08-08T16:09:29.208Z,1624
2022-08-08T16:10:45.455Z,1605
2022-08-08T16:12:01.682Z,1593
2022-08-08T16:13:16.938Z,1574
2022-08-08T16:14:33.197Z,1578
2022-08-08T16:15:49.423Z,1583
2022-08-08T16:17:05.668Z,1572
2022-08-08T16:18:21.903Z,1576
2022-08-08T16:19:38.144Z,1583
2022-08-08T16:20:54.391Z,1558
2022-08-08T16:22:10.628Z,1521
2022-08-08T16:23:26.865Z,1501
2022-08-08T16:24:43.099Z,1485
2022-08-08T16:25:59.357Z,1490
2022-08-08T16:27:15.580Z,1489
2022-08-08T16:28:31.821Z,1490
2022-08-08T16:29:47.074Z,1485
2022-08-08T16:31:03.333Z,1465
2022-08-08T16:32:19.585Z,1414
2022-08-08T16:33:35.813Z,1381
2022-08-08T16:34:52.034Z,1382
2022-08-08T16:36:08.273Z,1338
2022-08-08T16:37:24.533Z,846
2022-08-08T16:38:40.757Z,1473
2022-08-08T16:39:56.995Z,1661
2022-08-08T16:41:13.237Z,1430
2022-08-08T16:42:29.490Z,1319
2022-08-08T16:43:45.728Z,1295
2022-08-08T16:45:01.966Z,1288
2022-08-08T16:46:17.213Z,1276
2022-08-08T16:47:33.454Z,1239
2022-08-08T16:48:49.717Z,1046
2022-08-08T16:50:05.936Z,1375
2022-08-08T16:51:22.179Z,1305
2022-08-08T16:52:38.430Z,1228
2022-08-08T16:53:54.678Z,1206
2022-08-08T16:55:10.911Z,1184
2022-08-08T16:56:27.135Z,1070
2022-08-08T16:57:43.384Z,1264
2022-08-08T16:58:59.627Z,1113
2022-08-08T17:00:15.856Z,1167
2022-08-08T17:01:32.098Z,1144
2022-08-08T17:02:47.358Z,1066
2022-08-08T17:04:03.593Z,1160
2022-08-08T17:05:19.844Z,1089
2022-08-08T17:06:36.100Z,1061
2022-08-08T17:07:52.319Z,1044
2022-08-08T17:09:08.560Z,1027
2022-08-08T17:10:24.800Z,1026
2022-08-08T17:11:41.030Z,1018
2022-08-08T17:12:57.277Z,1028
2022-08-08T17:14:13.520Z,1018
2022-08-08T17:15:29.766Z,1018
2022-08-08T17:16:45.992Z,1020
2022-08-08T17:18:02.248Z,866
2022-08-08T17:19:17.499Z,988
2022-08-08T17:20:33.740Z,1059
2022-08-08T17:21:49.968Z,1006
2022-08-08T17:23:06.221Z,999
2022-08-08T17:24:22.464Z,879
2022-08-08T17:25:38.689Z,914